Impacts TAF Board
For situational awareness. Not to be used for flight planning purposes.
IDs:

KPIT - Pittsburgh Intl, PA, US

Issued at 0527 UTC 10 Dec 2022
Updated at 0809 UTC 10 Dec 2022
Potential Impact None Slight Moderate High
Time0751Z 10/09Z 10/10Z 10/11Z 10/12Z 10/13Z 10/14Z 10/15Z 10/16Z 10/17Z 10/18Z 10/19Z 10/20Z 10/21Z>>
Type OBS PRVL PRVL PRVL PRVL PRVL PRVL PRVL PRVL PRVL PRVL
  [TEMP]  
PRVL
  [TEMP]  
PRVL
  [TEMP]  
PRVL
  [TEMP]  
VIS 10 >6 >6 >6 >6 >6 >6 >6 >6 >6 >6
  [>6]  
>6
  [>6]  
>6
  [>6]  
>6
  [>6]  
CIG 33 25 25 25 25 25 25 25 25 25 25
  [15]  
25
  [15]  
25
  [15]  
25
  [15]  
Cover OVC OVC OVC OVC OVC OVC OVC OVC OVC OVC OVC
  [BKN]  
OVC
  [BKN]  
OVC
  [BKN]  
OVC
  [BKN]  
FltCat VFR MVFR MVFR MVFR MVFR MVFR MVFR MVFR MVFR MVFR MVFR
  [MVFR]  
MVFR
  [MVFR]  
MVFR
  [MVFR]  
MVFR
  [MVFR]  
WX -RA -- -- -- -- -- -- -- -- -- --
  [--]  
--
  [--]  
--
  [--]  
--
  [--]  
WDir 70 90 90 90 90 90 90 90 90 90 90
[90]
90
[90]
90
[90]
90
[90]
WSpd 5 8 8 8 8 8 8 8 8 8 8
  [8]  
8
  [8]  
8
  [8]  
8
  [8]  
WGst -- -- -- -- -- -- -- -- -- -- --
  [--]  
--
  [--]  
--
  [--]  
--
  [--]  
WSHgt -- -- -- -- -- -- -- -- -- -- --
[--]
--
[--]
--
[--]
--
[--]
WSDir -- -- -- -- -- -- -- -- -- -- --
[--]
--
[--]
--
[--]
--
[--]
WSSpd -- -- -- -- -- -- -- -- -- -- --
[--]
--
[--]
--
[--]
--
[--]
Raw TAF
KPIT 100527Z 1006/1112 06006KT 6SM -RA OVC035
  FM100900 09008KT P6SM OVC025
  TEMPO 1018/1022 BKN015
  FM110600 12006KT P6SM OVC015
  FM111000 14003KT 6SM -RA OVC008


Raw METAR
KPIT 100751Z 07005KT 10SM -RA BKN033 OVC044 01/M02 A3017 RMK AO2 SLP232 P0003 T00061017
KPIT 100651Z 06008KT 8SM -RA OVC050 01/M02 A3016 RMK AO2 SLP228 P0004 T00061022
KPIT 100551Z 05006KT 10SM -RA OVC045 02/M02 A3016 RMK AO2 RAB24 SLP230 P0000 60000 T00171022 10033 20017 53000

METAR Board
Radar Display
Forecast Discussion
For situational awareness. Not to be used for flight planning purposes.